KCSM

Clinton-Sherman Airport

Burns Flat, Oklahoma, USA
METAR KCSM 151853Z 25011KT 10SM CLR 09/M06 A3020 RMK AO2 SLP231 T00941061
Observed Flight Rules
Dec-15 @ 18:53 UTC (48 minutes ago) Visual Flight Rules
Wind Visibility Clouds
250° at 11 knots 10 miles
  • Clear skies
Temperatures Readings
Current 9°C / 48°F
Dewpoint -6°C / 21°F
Humidity 34%
Altimeter 30.2" Hg
Pressure 1023.1 hPa
Elevation 588
METAR KCSM 151853Z 25011KT 10SM CLR 09/M06 A3020 RMK AO2 SLP231 T00941061
Observed Flight Rules
Dec-15 @ 18:53 UTC
(48 minutes ago)
VFR
Wind Visibility
250° at 11 knots 10 miles
Clouds
  • Clear skies
Temperature Dewpoint
9°C / 48°F -6°C / 21°F
Humidity Altimeter Pressure
34% 30.2" Hg 1023.1 hPa